Pacific House, California
Current Conditions -  °F | °C
As of 5:35 PM on Wednesday 22 Oct 2014 (Local Time) from KPVF Reporting Station
Clear Clear  
Wind Chill: 64°   Ceiling: Unl
Heat Index: 64°   Visibility: 10mi
Dew Point: 36°   Wind: 0mph
Humidity: 34%   Direction: NA
Pressure: 30.07"   Gusts: NA
Location:  38.7953°N, 120.483°W
Report Text: KPVF 230035Z AUTO 00000KT 10SM CLR 18/02 A3007 RMK AO1
Loading
Personal Weather Stations






























Interactive Weather Map
Tropical Storm Tracking
New forecast layout! Learn more

10-Day Weather Forecast

Advertisements
Track Severe Weather on mobile